createdAt,value
2022-08-23T00:01:24.215Z,22.91
2022-08-23T00:03:56.178Z,22.83
2022-08-23T00:06:24.616Z,22.76
2022-08-23T00:08:53.673Z,22.76
2022-08-23T00:11:33.700Z,22.77
2022-08-23T00:14:07.655Z,22.73
2022-08-23T00:16:36.198Z,22.65
2022-08-23T00:19:06.386Z,22.59
2022-08-23T00:21:35.614Z,22.58
2022-08-23T00:24:03.755Z,22.57
2022-08-23T00:26:50.136Z,22.64
2022-08-23T00:29:18.516Z,22.67
2022-08-23T00:31:47.328Z,22.58
2022-08-23T00:34:16.808Z,22.64
2022-08-23T00:36:45.500Z,22.51
2022-08-23T00:39:13.540Z,22.50
2022-08-23T00:41:41.620Z,22.60
2022-08-23T00:44:33.392Z,22.56
2022-08-23T00:47:18.865Z,22.42
2022-08-23T00:49:55.158Z,22.43
2022-08-23T00:52:29.607Z,22.42
2022-08-23T00:54:57.971Z,22.39
2022-08-23T00:57:25.975Z,22.45
2022-08-23T00:59:53.984Z,22.45
2022-08-23T01:02:22.100Z,22.43
2022-08-23T01:04:56.579Z,22.41
2022-08-23T01:07:37.627Z,22.35
2022-08-23T01:10:14.974Z,22.38
2022-08-23T01:12:55.870Z,22.33
2022-08-23T01:15:27.839Z,22.31
2022-08-23T01:18:03.075Z,22.29
2022-08-23T01:20:39.548Z,22.26
2022-08-23T01:23:22.168Z,22.03
2022-08-23T01:25:50.281Z,22.20
2022-08-23T01:28:18.289Z,22.18
2022-08-23T01:30:48.861Z,22.17
2022-08-23T01:33:19.611Z,22.15
2022-08-23T01:35:50.644Z,22.17
2022-08-23T01:38:20.948Z,22.06
2022-08-23T01:40:49.479Z,22.14
2022-08-23T01:43:19.836Z,22.15
2022-08-23T01:45:50.898Z,22.11
2022-08-23T01:48:19.816Z,22.04
2022-08-23T01:50:48.178Z,22.12
2022-08-23T01:53:16.454Z,22.05
2022-08-23T01:55:50.120Z,22.04
2022-08-23T01:58:20.415Z,21.93
2022-08-23T02:00:48.364Z,21.97
2022-08-23T02:03:17.088Z,21.98
2022-08-23T02:05:45.695Z,21.98
2022-08-23T02:08:31.241Z,21.92
2022-08-23T02:11:08.030Z,21.92
2022-08-23T02:13:35.827Z,21.89
2022-08-23T02:16:04.296Z,21.86
2022-08-23T02:18:33.736Z,21.81
2022-08-23T02:21:01.955Z,21.82
2022-08-23T02:23:29.864Z,21.80
2022-08-23T02:25:57.989Z,21.80
2022-08-23T02:28:27.553Z,21.82
2022-08-23T02:30:55.376Z,21.75
2022-08-23T02:33:23.615Z,21.68
2022-08-23T02:35:51.883Z,21.76
2022-08-23T02:38:21.011Z,21.79
2022-08-23T02:40:52.924Z,21.79
2022-08-23T02:43:30.102Z,21.80
2022-08-23T02:45:58.155Z,21.82
2022-08-23T02:48:26.483Z,21.77
2022-08-23T02:51:08.493Z,21.79
2022-08-23T02:53:36.703Z,21.79
2022-08-23T02:56:21.286Z,21.73
2022-08-23T02:58:54.442Z,21.65
2022-08-23T03:01:26.323Z,21.62
2022-08-23T03:03:55.966Z,21.68
2022-08-23T03:06:26.499Z,21.67
2022-08-23T03:08:55.173Z,21.68
2022-08-23T03:11:24.907Z,21.57
2022-08-23T03:13:56.295Z,21.56
2022-08-23T03:16:24.469Z,21.56
2022-08-23T03:18:53.117Z,21.54
2022-08-23T03:21:22.295Z,21.56
2022-08-23T03:23:50.238Z,21.55
2022-08-23T03:26:18.795Z,21.57
2022-08-23T03:28:47.506Z,21.57
2022-08-23T03:31:17.989Z,21.50
2022-08-23T03:34:01.249Z,21.49
2022-08-23T03:36:29.103Z,21.47
2022-08-23T03:38:59.254Z,21.43
2022-08-23T03:41:27.572Z,21.34
2022-08-23T03:43:55.419Z,21.45
2022-08-23T03:46:24.928Z,21.40
2022-08-23T03:49:01.144Z,21.40
2022-08-23T03:51:35.303Z,21.33
2022-08-23T03:54:03.899Z,21.25
2022-08-23T03:56:34.743Z,21.31
2022-08-23T03:59:05.379Z,21.28
2022-08-23T04:01:34.668Z,21.28
2022-08-23T04:04:02.471Z,21.28
2022-08-23T04:06:32.965Z,21.28
2022-08-23T04:09:01.659Z,21.19
2022-08-23T04:11:29.583Z,21.16
2022-08-23T04:14:02.910Z,21.23
2022-08-23T04:16:36.194Z,21.17
2022-08-23T04:19:05.755Z,21.15
2022-08-23T04:21:39.266Z,21.02
2022-08-23T04:24:07.494Z,20.89
2022-08-23T04:26:35.774Z,21.03
2022-08-23T04:29:03.795Z,21.00
2022-08-23T04:31:34.710Z,21.03
2022-08-23T04:34:05.278Z,21.02
2022-08-23T04:36:39.139Z,20.99
2022-08-23T04:39:07.488Z,20.94
2022-08-23T04:41:53.296Z,20.97
2022-08-23T04:44:21.559Z,20.94
2022-08-23T04:46:51.307Z,21.01
2022-08-23T04:49:24.578Z,20.97
2022-08-23T04:51:54.038Z,21.02
2022-08-23T04:54:23.280Z,20.97
2022-08-23T04:57:08.079Z,20.91
2022-08-23T04:59:37.882Z,20.90
2022-08-23T05:02:06.022Z,20.85
2022-08-23T05:04:35.301Z,20.91
2022-08-23T05:07:04.057Z,20.93
2022-08-23T05:09:32.147Z,20.83
2022-08-23T05:12:00.137Z,20.97
2022-08-23T05:14:29.640Z,21.02
2022-08-23T05:16:57.447Z,21.01
2022-08-23T05:19:26.222Z,20.95
2022-08-23T05:21:57.177Z,20.95
2022-08-23T05:24:34.846Z,21.00
2022-08-23T05:27:02.771Z,21.06
2022-08-23T05:29:31.018Z,21.05
2022-08-23T05:31:58.939Z,20.94
2022-08-23T05:34:27.088Z,21.11
2022-08-23T05:36:58.956Z,21.12
2022-08-23T05:39:36.349Z,21.20
2022-08-23T05:42:13.886Z,21.24
2022-08-23T05:44:42.688Z,21.27
2022-08-23T05:47:13.782Z,21.30
2022-08-23T05:49:56.824Z,21.28
2022-08-23T05:52:27.437Z,21.33
2022-08-23T05:54:55.335Z,21.33
2022-08-23T05:57:42.139Z,21.30
2022-08-23T06:00:14.401Z,21.36
2022-08-23T06:02:49.208Z,21.41
2022-08-23T06:05:19.610Z,21.45
2022-08-23T06:07:50.224Z,21.45
2022-08-23T06:10:21.418Z,21.51
2022-08-23T06:13:03.159Z,21.56
2022-08-23T06:15:31.243Z,21.62
2022-08-23T06:17:59.725Z,21.66
2022-08-23T06:20:28.024Z,21.70
2022-08-23T06:23:08.788Z,21.76
2022-08-23T06:25:40.817Z,21.83
2022-08-23T06:28:13.374Z,21.88
2022-08-23T06:30:43.394Z,21.90
2022-08-23T06:33:21.972Z,21.97
2022-08-23T06:36:10.851Z,22.04
2022-08-23T06:39:00.307Z,22.10
2022-08-23T06:42:02.035Z,22.18
2022-08-23T06:44:32.549Z,22.19
2022-08-23T06:47:12.182Z,22.27
2022-08-23T06:49:40.303Z,22.29
2022-08-23T06:52:24.060Z,22.35
2022-08-23T06:55:02.304Z,22.39
2022-08-23T06:57:41.846Z,22.47
2022-08-23T07:00:28.304Z,22.53
2022-08-23T07:03:28.592Z,22.54
2022-08-23T07:06:16.740Z,22.57
2022-08-23T07:08:45.756Z,22.60
2022-08-23T07:11:15.200Z,22.62
2022-08-23T07:13:43.252Z,22.60
2022-08-23T07:16:12.162Z,22.65
2022-08-23T07:18:40.725Z,22.64
2022-08-23T07:21:14.364Z,22.62
2022-08-23T07:23:46.645Z,22.67
2022-08-23T07:26:18.631Z,22.69
2022-08-23T07:28:46.575Z,22.74
2022-08-23T07:31:19.110Z,22.77
2022-08-23T07:33:48.336Z,22.76
2022-08-23T07:36:23.318Z,22.77
2022-08-23T07:38:53.748Z,22.83
2022-08-23T07:41:25.352Z,22.83
2022-08-23T07:43:54.957Z,22.87
2022-08-23T07:46:26.833Z,22.81
2022-08-23T07:48:55.188Z,22.92
2022-08-23T07:51:32.834Z,22.93
2022-08-23T07:54:02.776Z,22.99
2022-08-23T07:56:32.314Z,23.05
2022-08-23T07:59:11.431Z,23.06
2022-08-23T08:01:43.759Z,22.86
2022-08-23T08:04:13.075Z,23.08
2022-08-23T08:06:59.825Z,23.10
2022-08-23T08:09:35.481Z,23.14
2022-08-23T08:12:05.513Z,23.09
2022-08-23T08:14:34.306Z,23.17
2022-08-23T08:17:06.852Z,23.19
2022-08-23T08:19:48.840Z,23.25
2022-08-23T08:22:35.465Z,23.30
2022-08-23T08:25:26.170Z,23.29
2022-08-23T08:27:56.938Z,23.28
2022-08-23T08:30:24.816Z,23.40
2022-08-23T08:32:52.908Z,23.41
2022-08-23T08:35:22.654Z,23.43
2022-08-23T08:37:50.777Z,23.48
2022-08-23T08:40:26.055Z,23.47
2022-08-23T08:43:16.505Z,23.49
2022-08-23T08:45:58.909Z,23.54
2022-08-23T08:48:34.074Z,23.58
2022-08-23T08:51:07.214Z,23.60
2022-08-23T08:53:39.496Z,23.60
2022-08-23T08:56:20.872Z,23.62
2022-08-23T08:58:59.880Z,23.70
2022-08-23T09:01:31.112Z,23.74
2022-08-23T09:03:59.326Z,23.76
2022-08-23T09:06:35.243Z,23.79
2022-08-23T09:09:22.139Z,23.82
2022-08-23T09:12:02.302Z,23.63
2022-08-23T09:14:53.311Z,23.90
2022-08-23T09:17:26.367Z,23.97
2022-08-23T09:20:00.324Z,24.01
2022-08-23T09:22:37.726Z,23.99
2022-08-23T09:25:13.148Z,24.05
2022-08-23T09:27:58.857Z,24.08
2022-08-23T09:30:50.143Z,24.09
2022-08-23T09:33:21.048Z,24.14
2022-08-23T09:36:06.804Z,24.23
2022-08-23T09:38:39.582Z,24.18
2022-08-23T09:41:19.189Z,24.31
2022-08-23T09:43:50.416Z,24.28
2022-08-23T09:46:30.372Z,24.30
2022-08-23T09:49:01.149Z,24.30
2022-08-23T09:51:37.752Z,24.36
2022-08-23T09:54:13.194Z,24.39
2022-08-23T09:56:45.080Z,24.50
2022-08-23T09:59:26.535Z,24.30
2022-08-23T10:02:02.692Z,24.52
2022-08-23T10:04:42.159Z,24.70
2022-08-23T10:07:33.903Z,24.88
2022-08-23T10:10:24.441Z,24.95
2022-08-23T10:12:56.062Z,24.91
2022-08-23T10:15:45.157Z,25.00
2022-08-23T10:18:29.581Z,25.09
2022-08-23T10:21:06.250Z,25.21
2022-08-23T10:23:45.487Z,25.29
2022-08-23T10:26:24.844Z,25.66
2022-08-23T10:29:17.096Z,25.92
2022-08-23T10:31:59.023Z,26.37
2022-08-23T10:34:48.402Z,26.67
2022-08-23T10:37:39.440Z,27.03
2022-08-23T10:40:16.397Z,27.45
2022-08-23T10:42:55.342Z,27.84
2022-08-23T10:45:27.583Z,27.99
2022-08-23T10:48:14.910Z,28.27
2022-08-23T10:50:54.639Z,28.43
2022-08-23T10:53:37.409Z,28.55
2022-08-23T10:56:07.920Z,28.63
2022-08-23T10:58:47.394Z,28.59
2022-08-23T11:01:19.017Z,28.99
2022-08-23T11:03:56.395Z,29.12
2022-08-23T11:06:45.886Z,29.28
2022-08-23T11:09:50.973Z,29.30
2022-08-23T11:12:29.143Z,29.35
2022-08-23T11:15:20.598Z,29.48
2022-08-23T11:18:39.176Z,29.63
2022-08-23T11:21:12.420Z,29.79
2022-08-23T11:23:55.923Z,29.93
2022-08-23T11:27:07.424Z,29.92
2022-08-23T11:29:43.565Z,30.11
2022-08-23T11:32:45.395Z,30.30
2022-08-23T11:35:36.915Z,30.29
2022-08-23T11:38:09.288Z,30.46
2022-08-23T11:41:12.615Z,30.59
2022-08-23T11:43:42.868Z,30.67
2022-08-23T11:46:35.847Z,31.02
2022-08-23T11:49:41.040Z,31.01
2022-08-23T11:52:38.641Z,31.17
2022-08-23T11:55:24.860Z,31.69
2022-08-23T11:58:12.210Z,32.01
2022-08-23T12:00:57.391Z,32.07
2022-08-23T12:03:33.518Z,32.27
2022-08-23T12:06:24.806Z,32.58
2022-08-23T12:09:01.678Z,32.80
2022-08-23T12:12:00.741Z,32.69
2022-08-23T12:14:50.722Z,32.83
2022-08-23T12:17:53.415Z,32.97
2022-08-23T12:20:30.068Z,32.85
2022-08-23T12:23:07.754Z,31.95
2022-08-23T12:25:36.215Z,32.38
2022-08-23T12:28:27.609Z,32.68
2022-08-23T12:31:07.866Z,33.13
2022-08-23T12:33:54.595Z,33.19
2022-08-23T12:36:31.244Z,33.30
2022-08-23T12:39:15.758Z,32.96
2022-08-23T12:41:56.667Z,32.68
2022-08-23T12:44:27.921Z,32.98
2022-08-23T12:46:58.092Z,33.01
2022-08-23T12:49:29.591Z,33.15
2022-08-23T12:51:59.177Z,32.83
2022-08-23T12:54:39.587Z,32.70
2022-08-23T12:57:11.643Z,32.79
2022-08-23T12:59:52.915Z,32.93
2022-08-23T13:02:33.145Z,32.94
2022-08-23T13:05:13.464Z,33.00
2022-08-23T13:07:42.239Z,33.06
2022-08-23T13:10:12.082Z,32.67
2022-08-23T13:12:42.237Z,33.02
2022-08-23T13:15:10.825Z,32.92
2022-08-23T13:17:41.004Z,32.91
2022-08-23T13:20:21.931Z,33.15
2022-08-23T13:23:01.794Z,33.11
2022-08-23T13:25:37.895Z,32.90
2022-08-23T13:28:09.092Z,32.34
2022-08-23T13:30:39.092Z,31.86
2022-08-23T13:33:24.510Z,31.50
2022-08-23T13:36:11.460Z,31.08
2022-08-23T13:38:43.251Z,30.80
2022-08-23T13:41:14.046Z,30.92
2022-08-23T13:43:49.018Z,31.28
2022-08-23T13:46:22.671Z,31.60
2022-08-23T13:48:59.163Z,31.75
2022-08-23T13:51:30.479Z,31.75
2022-08-23T13:54:01.009Z,31.85
2022-08-23T13:56:30.651Z,31.54
2022-08-23T13:59:01.294Z,31.57
2022-08-23T14:01:30.100Z,31.57
2022-08-23T14:03:59.350Z,31.43
2022-08-23T14:06:27.188Z,31.39
2022-08-23T14:08:55.249Z,31.40
2022-08-23T14:11:23.330Z,31.44
2022-08-23T14:13:51.627Z,31.37
2022-08-23T14:16:39.853Z,31.29
2022-08-23T14:19:16.507Z,31.11
2022-08-23T14:21:47.130Z,30.85
2022-08-23T14:24:15.196Z,30.58
2022-08-23T14:26:50.196Z,30.52
2022-08-23T14:29:19.711Z,30.51
2022-08-23T14:31:50.715Z,30.42
2022-08-23T14:34:20.488Z,30.30
2022-08-23T14:39:36.235Z,30.18
2022-08-23T14:42:05.781Z,30.19
2022-08-23T14:44:35.887Z,30.03
2022-08-23T14:47:05.407Z,29.89
2022-08-23T14:49:35.818Z,29.70
2022-08-23T14:52:04.495Z,29.61
2022-08-23T14:54:32.947Z,29.51
2022-08-23T14:57:00.811Z,29.51
2022-08-23T14:59:28.587Z,29.71
2022-08-23T15:01:57.623Z,29.83
2022-08-23T15:04:34.055Z,30.00
2022-08-23T15:07:17.611Z,30.06
2022-08-23T15:09:46.400Z,29.91
2022-08-23T15:15:02.307Z,29.69
2022-08-23T15:17:31.677Z,29.81
2022-08-23T15:20:00.118Z,29.83
2022-08-23T15:22:29.338Z,29.80
2022-08-23T15:24:57.329Z,29.90
2022-08-23T15:27:25.803Z,30.04
2022-08-23T15:29:54.169Z,29.96
2022-08-23T15:32:22.752Z,30.04
2022-08-23T15:34:51.734Z,30.13
2022-08-23T15:37:22.557Z,30.13
2022-08-23T15:39:52.091Z,30.11
2022-08-23T15:42:20.765Z,30.07
2022-08-23T15:44:49.313Z,30.02
2022-08-23T15:47:21.403Z,30.08
2022-08-23T15:49:50.058Z,29.97
2022-08-23T15:52:18.580Z,29.88
2022-08-23T15:54:47.258Z,29.71
2022-08-23T15:57:20.331Z,29.61
2022-08-23T15:59:48.681Z,29.39
2022-08-23T16:02:16.993Z,29.29
2022-08-23T16:04:45.435Z,29.17
2022-08-23T16:07:18.921Z,29.01
2022-08-23T16:09:47.372Z,28.97
2022-08-23T16:12:17.096Z,28.90
2022-08-23T16:14:44.984Z,28.83
2022-08-23T16:17:14.966Z,28.89
2022-08-23T16:19:44.228Z,28.82
2022-08-23T16:22:12.387Z,28.80
2022-08-23T16:24:40.306Z,28.77
2022-08-23T16:27:09.043Z,28.64
2022-08-23T16:29:40.892Z,28.78
2022-08-23T16:32:09.496Z,28.96
2022-08-23T16:34:37.387Z,29.09
2022-08-23T16:37:09.594Z,29.07
2022-08-23T16:39:38.375Z,29.13
2022-08-23T16:42:07.481Z,29.15
2022-08-23T16:44:35.834Z,29.19
2022-08-23T16:47:07.241Z,29.03
2022-08-23T16:49:35.096Z,29.05
2022-08-23T16:52:03.217Z,29.09
2022-08-23T16:54:31.303Z,29.07
2022-08-23T16:56:59.062Z,29.09
2022-08-23T16:59:26.865Z,29.03
2022-08-23T17:01:57.647Z,28.98
2022-08-23T17:04:30.456Z,28.96
2022-08-23T17:06:59.327Z,28.91
2022-08-23T17:09:29.501Z,28.89
2022-08-23T17:11:59.108Z,28.91
2022-08-23T17:14:28.272Z,28.97
2022-08-23T17:16:56.117Z,28.88
2022-08-23T17:19:24.810Z,28.78
2022-08-23T17:21:54.200Z,28.73
2022-08-23T17:24:24.379Z,28.53
2022-08-23T17:26:52.266Z,28.65
2022-08-23T17:29:20.443Z,28.61
2022-08-23T17:31:48.664Z,28.60
2022-08-23T17:34:16.639Z,28.53
2022-08-23T17:36:47.696Z,28.49
2022-08-23T17:39:19.888Z,28.41
2022-08-23T17:41:48.048Z,28.37
2022-08-23T17:44:16.062Z,28.38
2022-08-23T17:46:46.393Z,28.34
2022-08-23T17:49:15.317Z,28.27
2022-08-23T17:51:44.215Z,28.20
2022-08-23T17:54:16.080Z,28.02
2022-08-23T17:56:49.916Z,28.14
2022-08-23T17:59:19.120Z,28.00
2022-08-23T18:01:47.198Z,28.03
2022-08-23T18:04:15.091Z,27.97
2022-08-23T18:06:42.920Z,27.92
2022-08-23T18:09:11.948Z,27.84
2022-08-23T18:11:39.939Z,27.75
2022-08-23T18:14:09.331Z,27.58
2022-08-23T18:16:38.477Z,27.47
2022-08-23T18:19:07.376Z,27.51
2022-08-23T18:21:40.542Z,27.42
2022-08-23T18:24:09.320Z,27.47
2022-08-23T18:26:57.653Z,27.41
2022-08-23T18:29:27.071Z,27.36
2022-08-23T18:31:55.019Z,27.31
2022-08-23T18:34:23.278Z,27.31
2022-08-23T18:36:51.279Z,27.27
2022-08-23T18:39:31.473Z,27.26
2022-08-23T18:42:00.557Z,27.18
2022-08-23T18:44:30.394Z,27.10
2022-08-23T18:47:01.791Z,26.90
2022-08-23T18:49:29.848Z,27.01
2022-08-23T18:51:57.699Z,26.94
2022-08-23T18:54:25.577Z,26.90
2022-08-23T18:56:53.382Z,26.91
2022-08-23T18:59:21.298Z,26.85
2022-08-23T19:01:51.199Z,26.80
2022-08-23T19:04:19.467Z,26.74
2022-08-23T19:06:48.007Z,26.68
2022-08-23T19:09:16.041Z,26.65
2022-08-23T19:11:44.477Z,26.59
2022-08-23T19:14:12.805Z,26.51
2022-08-23T19:16:45.732Z,26.44
2022-08-23T19:19:18.749Z,26.41
2022-08-23T19:21:46.668Z,26.36
2022-08-23T19:24:14.805Z,26.34
2022-08-23T19:26:47.310Z,26.26
2022-08-23T19:29:16.000Z,26.22
2022-08-23T19:31:47.767Z,26.18
2022-08-23T19:34:17.912Z,26.14
2022-08-23T19:36:51.168Z,26.09
2022-08-23T19:39:26.943Z,26.05
2022-08-23T19:41:55.223Z,25.98
2022-08-23T19:44:23.686Z,25.96
2022-08-23T19:46:51.588Z,25.93
2022-08-23T19:49:20.814Z,25.91
2022-08-23T19:51:48.569Z,25.88
2022-08-23T19:54:17.307Z,25.79
2022-08-23T19:56:48.412Z,25.78
2022-08-23T19:59:20.261Z,25.74
2022-08-23T20:01:49.182Z,25.73
2022-08-23T20:04:17.380Z,25.71
2022-08-23T20:06:46.808Z,25.65
2022-08-23T20:09:14.563Z,25.61
2022-08-23T20:11:42.757Z,25.58
2022-08-23T20:14:11.087Z,25.55
2022-08-23T20:16:41.051Z,25.52
2022-08-23T20:19:12.646Z,25.50
2022-08-23T20:21:41.752Z,25.46
2022-08-23T20:24:12.292Z,25.29
2022-08-23T20:26:43.586Z,25.42
2022-08-23T20:29:14.078Z,25.42
2022-08-23T20:31:50.831Z,25.36
2022-08-23T20:34:19.062Z,25.33
2022-08-23T20:36:48.059Z,25.30
2022-08-23T20:39:21.838Z,25.29
2022-08-23T20:41:52.161Z,25.27
2022-08-23T20:44:20.506Z,25.25
2022-08-23T20:46:53.220Z,25.22
2022-08-23T20:49:22.789Z,25.18
2022-08-23T20:51:51.051Z,25.12
2022-08-23T20:54:22.057Z,25.13
2022-08-23T20:56:51.803Z,25.11
2022-08-23T20:59:21.188Z,24.97
2022-08-23T21:01:51.561Z,25.05
2022-08-23T21:04:19.505Z,25.04
2022-08-23T21:06:51.229Z,25.01
2022-08-23T21:09:23.496Z,24.99
2022-08-23T21:11:55.485Z,24.99
2022-08-23T21:14:23.288Z,24.68
2022-08-23T21:16:51.119Z,24.72
2022-08-23T21:19:19.806Z,24.87
2022-08-23T21:21:47.688Z,24.87
2022-08-23T21:24:16.509Z,24.87
2022-08-23T21:26:45.672Z,24.85
2022-08-23T21:29:13.571Z,24.82
2022-08-23T21:31:41.366Z,24.74
2022-08-23T21:34:09.734Z,24.64
2022-08-23T21:36:37.814Z,24.80
2022-08-23T21:39:06.308Z,24.82
2022-08-23T21:41:39.093Z,24.79
2022-08-23T21:44:11.213Z,24.72
2022-08-23T21:46:39.281Z,24.66
2022-08-23T21:49:08.230Z,24.66
2022-08-23T21:51:40.467Z,24.61
2022-08-23T21:54:09.971Z,24.59
2022-08-23T21:56:39.086Z,24.56
2022-08-23T21:59:10.033Z,24.56
2022-08-23T22:01:38.151Z,24.52
2022-08-23T22:04:08.814Z,24.49
2022-08-23T22:06:38.175Z,24.48
2022-08-23T22:09:06.380Z,24.49
2022-08-23T22:11:36.182Z,24.50
2022-08-23T22:14:04.112Z,24.53
2022-08-23T22:16:33.279Z,24.53
2022-08-23T22:19:01.084Z,24.51
2022-08-23T22:21:28.868Z,24.45
2022-08-23T22:24:03.245Z,24.45
2022-08-23T22:26:31.220Z,24.42
2022-08-23T22:28:59.200Z,24.39
2022-08-23T22:31:27.257Z,24.35
2022-08-23T22:33:56.500Z,24.31
2022-08-23T22:36:25.331Z,24.25
2022-08-23T22:38:53.131Z,24.22
2022-08-23T22:41:23.923Z,24.23
2022-08-23T22:43:54.287Z,24.23
2022-08-23T22:46:22.949Z,24.19
2022-08-23T22:48:51.050Z,24.17
2022-08-23T22:51:22.649Z,24.14
2022-08-23T22:53:52.740Z,24.09
2022-08-23T22:56:24.624Z,24.07
2022-08-23T22:58:54.846Z,23.70
2022-08-23T23:01:26.008Z,24.04
2022-08-23T23:03:54.744Z,24.01
2022-08-23T23:06:24.820Z,23.99
2022-08-23T23:08:53.393Z,23.97
2022-08-23T23:11:23.432Z,23.94
2022-08-23T23:13:51.856Z,23.70
2022-08-23T23:16:22.659Z,23.98
2022-08-23T23:19:05.205Z,23.94
2022-08-23T23:21:36.291Z,23.91
2022-08-23T23:24:04.904Z,23.72
2022-08-23T23:26:32.748Z,23.90
2022-08-23T23:29:00.772Z,23.88
2022-08-23T23:31:28.639Z,23.85
2022-08-23T23:33:56.448Z,23.84
2022-08-23T23:36:24.544Z,23.79
2022-08-23T23:38:53.882Z,23.59
2022-08-23T23:41:22.351Z,23.76
2022-08-23T23:43:50.212Z,23.71
2022-08-23T23:46:20.401Z,23.74
2022-08-23T23:48:50.134Z,23.79
2022-08-23T23:51:20.330Z,23.81
2022-08-23T23:53:48.422Z,23.74
2022-08-23T23:56:18.651Z,23.71
2022-08-23T23:58:46.781Z,23.65
